Time;durP1;ratioP1;P1;durP2;ratioP2;P2;SDS_P1;SDS_P2;PMS_P1;PMS_P2;Temp;Humidity;BMP_temperature;BMP_pressure;BME280_temperature;BME280_humidity;BME280_pressure;Samples;Min_cycle;Max_cycle;Signal;HPM_P1;HPM_P2
2022/04/17 00:00:50;;;;;;;5.80;4.17;;;;;;;;;;5018150;28;20648;-39
2022/04/17 00:03:17;;;;;;;5.67;3.80;;;;;;;;;;5018155;28;20205;-41
2022/04/17 00:05:44;;;;;;;5.00;3.90;;;;;;;;;;5017976;28;20695;-39
2022/04/17 00:08:11;;;;;;;7.00;3.77;;;;;;;;;;5018056;28;20220;-40
2022/04/17 00:10:38;;;;;;;6.87;4.20;;;;;;;;;;5018198;28;20311;-39
2022/04/17 00:13:06;;;;;;;7.13;3.93;;;;;;;;;;5017157;28;20205;-39
2022/04/17 00:15:33;;;;;;;6.83;3.63;;;;;;;;;;5017913;28;20221;-39
2022/04/17 00:18:00;;;;;;;5.93;4.07;;;;;;;;;;5017814;28;20217;-39
2022/04/17 00:20:27;;;;;;;6.50;4.13;;;;;;;;;;5017712;28;20213;-39
2022/04/17 00:22:54;;;;;;;7.17;3.53;;;;;;;;;;5017746;28;20205;-39
2022/04/17 00:25:22;;;;;;;5.77;3.60;;;;;;;;;;5017640;28;20209;-39
2022/04/17 00:27:49;;;;;;;5.87;4.17;;;;;;;;;;5017592;28;20224;-40
2022/04/17 00:30:16;;;;;;;5.90;4.17;;;;;;;;;;5017422;28;20205;-39
2022/04/17 00:32:44;;;;;;;6.57;4.50;;;;;;;;;;5017208;28;20660;-39
2022/04/17 00:35:12;;;;;;;7.20;4.23;;;;;;;;;;5017392;28;20216;-40
2022/04/17 00:37:40;;;;;;;5.57;4.03;;;;;;;;;;5018081;28;20217;-40
2022/04/17 00:40:07;;;;;;;8.07;4.23;;;;;;;;;;5017777;28;20205;-40
2022/04/17 00:42:34;;;;;;;8.53;5.30;;;;;;;;;;5017196;28;20206;-38
2022/04/17 00:45:02;;;;;;;5.43;3.90;;;;;;;;;;5017178;28;20572;-40
2022/04/17 00:47:29;;;;;;;7.20;4.50;;;;;;;;;;5017281;28;20228;-39
2022/04/17 00:49:57;;;;;;;6.20;4.13;;;;;;;;;;5017230;28;20675;-39
2022/04/17 00:52:24;;;;;;;7.43;4.23;;;;;;;;;;5017009;28;20666;-39
2022/04/17 00:54:52;;;;;;;6.87;4.50;;;;;;;;;;5017258;28;20243;-39
2022/04/17 00:57:19;;;;;;;6.77;4.10;;;;;;;;;;5017172;28;20214;-39
2022/04/17 00:59:47;;;;;;;8.10;4.90;;;;;;;;;;5016972;28;20209;-39
2022/04/17 01:02:14;;;;;;;6.47;4.03;;;;;;;;;;5016182;28;20655;-39
2022/04/17 01:04:43;;;;;;;6.53;4.47;;;;;;;;;;5016964;28;20220;-39
2022/04/17 01:07:10;;;;;;;7.97;4.53;;;;;;;;;;5016739;28;20235;-39
2022/04/17 01:09:39;;;;;;;7.23;4.33;;;;;;;;;;5016497;28;20241;-40
2022/04/17 01:12:10;;;;;;;6.87;4.57;;;;;;;;;;5016803;28;20263;-39
2022/04/17 01:14:41;;;;;;;8.30;4.73;;;;;;;;;;5016808;28;20605;-40
2022/04/17 01:17:09;;;;;;;25.93;17.93;;;;;;;;;;5016784;28;20201;-39
2022/04/17 01:19:37;;;;;;;12.93;9.87;;;;;;;;;;5017047;28;20235;-40
2022/04/17 01:22:06;;;;;;;7.97;5.80;;;;;;;;;;5016619;28;20244;-39
2022/04/17 01:27:20;;;;;;;7.47;4.20;;;;;;;;;;5032225;28;20218;-39
2022/04/17 01:29:47;;;;;;;7.60;4.90;;;;;;;;;;5015985;28;20524;-41
2022/04/17 01:32:15;;;;;;;10.53;4.93;;;;;;;;;;5016182;28;20205;-39
2022/04/17 01:34:42;;;;;;;5.67;3.97;;;;;;;;;;5016411;28;20209;-40
2022/04/17 01:37:10;;;;;;;7.13;4.40;;;;;;;;;;5016204;28;20232;-39
2022/04/17 01:39:37;;;;;;;7.30;4.60;;;;;;;;;;5016020;28;20621;-40
2022/04/17 01:42:04;;;;;;;6.50;5.03;;;;;;;;;;5016410;28;20225;-39
2022/04/17 01:44:31;;;;;;;7.70;4.50;;;;;;;;;;5016175;28;20201;-39
2022/04/17 01:47:01;;;;;;;9.63;5.00;;;;;;;;;;5016113;28;20304;-39
2022/04/17 01:49:28;;;;;;;7.50;4.70;;;;;;;;;;5015906;28;20660;-39
2022/04/17 01:51:56;;;;;;;6.80;4.60;;;;;;;;;;5015994;28;20205;-40
2022/04/17 01:54:25;;;;;;;7.10;5.00;;;;;;;;;;5015639;28;20201;-40
2022/04/17 01:56:52;;;;;;;5.90;4.13;;;;;;;;;;5016551;28;20205;-39
2022/04/17 01:59:21;;;;;;;6.83;4.20;;;;;;;;;;5016120;28;20217;-39
2022/04/17 02:01:48;;;;;;;9.73;4.57;;;;;;;;;;5031430;28;20243;-39
2022/04/17 02:04:16;;;;;;;8.60;5.73;;;;;;;;;;5015842;28;20205;-39
2022/04/17 02:06:44;;;;;;;10.90;6.10;;;;;;;;;;5015956;28;20236;-39
2022/04/17 02:09:12;;;;;;;9.40;5.57;;;;;;;;;;5015626;28;20233;-39
2022/04/17 02:11:41;;;;;;;7.80;5.23;;;;;;;;;;5016160;28;20216;-40
2022/04/17 02:14:09;;;;;;;8.53;5.23;;;;;;;;;;5015404;28;20201;-41
2022/04/17 02:16:37;;;;;;;8.23;5.10;;;;;;;;;;5015443;28;20225;-43
2022/04/17 02:19:04;;;;;;;8.10;4.97;;;;;;;;;;5015469;28;20225;-41
2022/04/17 02:21:32;;;;;;;6.57;4.67;;;;;;;;;;5015742;28;20542;-39
2022/04/17 02:24:00;;;;;;;7.23;5.20;;;;;;;;;;5015307;28;20251;-39
2022/04/17 02:26:27;;;;;;;7.93;4.80;;;;;;;;;;5015444;28;20221;-39
2022/04/17 02:28:56;;;;;;;7.87;4.97;;;;;;;;;;5015430;28;20201;-39
2022/04/17 02:31:24;;;;;;;7.80;5.97;;;;;;;;;;5015054;28;20634;-39
2022/04/17 02:33:51;;;;;;;6.33;4.83;;;;;;;;;;5015366;28;20209;-41
2022/04/17 02:36:20;;;;;;;7.80;4.87;;;;;;;;;;5015084;28;20212;-39
2022/04/17 02:38:47;;;;;;;6.97;4.93;;;;;;;;;;5015531;28;20216;-40
2022/04/17 02:41:14;;;;;;;8.97;5.07;;;;;;;;;;5015313;28;20243;-39
2022/04/17 02:43:42;;;;;;;7.37;4.87;;;;;;;;;;5015071;28;20217;-40
2022/04/17 02:46:08;;;;;;;7.53;5.13;;;;;;;;;;5015228;28;20209;-39
2022/04/17 02:48:36;;;;;;;8.00;5.37;;;;;;;;;;5015739;28;20525;-40
2022/04/17 02:51:03;;;;;;;9.67;5.17;;;;;;;;;;5015232;28;20201;-39
2022/04/17 02:53:32;;;;;;;7.57;4.73;;;;;;;;;;5014914;28;20297;-40
2022/04/17 02:56:00;;;;;;;10.23;5.67;;;;;;;;;;5014794;28;20557;-40
2022/04/17 02:58:28;;;;;;;7.83;4.50;;;;;;;;;;5014537;28;20212;-39
2022/04/17 03:06:26;;;;;;;6.33;4.67;;;;;;;;;;5014864;28;20583;-39
2022/04/17 03:08:54;;;;;;;7.57;5.17;;;;;;;;;;5014262;28;20230;-39
2022/04/17 03:11:21;;;;;;;9.47;5.30;;;;;;;;;;5014727;28;20220;-39
2022/04/17 03:13:48;;;;;;;9.90;4.63;;;;;;;;;;5014958;28;20197;-39
2022/04/17 03:16:15;;;;;;;7.60;5.00;;;;;;;;;;5014564;28;20201;-40
2022/04/17 03:18:43;;;;;;;6.60;4.70;;;;;;;;;;5014786;28;20205;-39
2022/04/17 03:21:11;;;;;;;8.77;5.30;;;;;;;;;;5014661;28;20271;-39
2022/04/17 03:23:39;;;;;;;7.37;5.73;;;;;;;;;;5014337;28;20543;-39
2022/04/17 03:26:05;;;;;;;9.33;5.63;;;;;;;;;;5015692;28;20640;-39
2022/04/17 03:28:33;;;;;;;9.30;5.23;;;;;;;;;;5018289;28;20298;-39
2022/04/17 03:31:00;;;;;;;7.13;5.20;;;;;;;;;;5018299;28;20217;-40
2022/04/17 03:33:28;;;;;;;9.10;5.10;;;;;;;;;;5017924;28;20197;-39
2022/04/17 03:35:56;;;;;;;8.17;5.20;;;;;;;;;;5017556;28;20197;-39
2022/04/17 03:38:23;;;;;;;8.70;5.70;;;;;;;;;;5018280;28;20695;-38
2022/04/17 03:40:51;;;;;;;11.00;5.60;;;;;;;;;;5017703;28;20209;-41
2022/04/17 03:43:18;;;;;;;8.67;5.70;;;;;;;;;;5016109;28;20624;-42
2022/04/17 03:45:47;;;;;;;7.80;5.30;;;;;;;;;;5017622;28;20263;-38
2022/04/17 03:48:18;;;;;;;7.93;5.00;;;;;;;;;;5018097;28;20231;-39
2022/04/17 03:50:45;;;;;;;10.07;5.60;;;;;;;;;;5018233;28;20224;-40
2022/04/17 03:53:13;;;;;;;8.27;5.80;;;;;;;;;;5017811;28;20205;-39
2022/04/17 03:55:40;;;;;;;10.17;5.57;;;;;;;;;;5018221;28;20206;-40
2022/04/17 03:58:07;;;;;;;9.07;5.80;;;;;;;;;;5017667;28;20280;-39
2022/04/17 04:00:34;;;;;;;12.07;5.23;;;;;;;;;;5017893;28;20202;-39
2022/04/17 04:03:03;;;;;;;9.43;6.00;;;;;;;;;;5018061;28;20299;-39
2022/04/17 04:05:33;;;;;;;9.07;6.13;;;;;;;;;;5017879;28;20202;-39
2022/04/17 04:08:01;;;;;;;10.40;6.03;;;;;;;;;;5018095;28;20706;-39
2022/04/17 04:10:28;;;;;;;9.87;5.97;;;;;;;;;;5018093;28;20237;-39
2022/04/17 04:12:56;;;;;;;7.47;5.13;;;;;;;;;;5017861;28;20220;-38
2022/04/17 04:15:24;;;;;;;9.03;5.37;;;;;;;;;;5018080;28;20267;-42
2022/04/17 04:17:51;;;;;;;10.37;5.40;;;;;;;;;;5017621;28;20275;-39
2022/04/17 04:20:18;;;;;;;9.77;5.20;;;;;;;;;;5017803;28;20633;-40
2022/04/17 04:22:45;;;;;;;9.27;5.17;;;;;;;;;;5017620;28;20533;-39
2022/04/17 04:25:12;;;;;;;8.30;5.47;;;;;;;;;;5017784;28;20215;-40
2022/04/17 04:30:25;;;;;;;9.30;6.30;;;;;;;;;;5017699;28;20236;-39
2022/04/17 04:32:53;;;;;;;11.37;5.73;;;;;;;;;;5017312;28;20240;-40
2022/04/17 04:35:20;;;;;;;8.83;5.60;;;;;;;;;;5017481;28;20297;-40
2022/04/17 04:37:48;;;;;;;9.27;5.30;;;;;;;;;;5016421;28;20276;-39
2022/04/17 04:40:16;;;;;;;8.60;5.73;;;;;;;;;;5017487;28;20202;-39
2022/04/17 04:42:43;;;;;;;9.10;5.53;;;;;;;;;;5017033;28;20275;-39
2022/04/17 04:47:56;;;;;;;7.33;5.23;;;;;;;;;;5020565;28;20233;-38
2022/04/17 04:50:23;;;;;;;15.10;6.13;;;;;;;;;;5026998;28;20239;-38
2022/04/17 04:52:50;;;;;;;7.90;5.50;;;;;;;;;;5029543;28;20347;-39
2022/04/17 04:55:17;;;;;;;8.87;5.30;;;;;;;;;;5017891;28;20228;-39
2022/04/17 04:57:45;;;;;;;7.70;5.40;;;;;;;;;;5026177;28;20225;-38
2022/04/17 05:00:13;;;;;;;8.13;5.70;;;;;;;;;;5033010;28;20236;-39
2022/04/17 05:02:41;;;;;;;8.20;5.40;;;;;;;;;;5036522;28;20241;-39
2022/04/17 05:05:09;;;;;;;10.27;5.67;;;;;;;;;;5035852;28;20283;-41
2022/04/17 05:07:37;;;;;;;9.83;5.83;;;;;;;;;;5035751;28;20232;-40
2022/04/17 05:10:05;;;;;;;10.47;5.67;;;;;;;;;;5035561;28;20236;-43
2022/04/17 05:12:33;;;;;;;8.63;5.50;;;;;;;;;;5035681;28;20562;-41
2022/04/17 05:15:01;;;;;;;8.63;5.80;;;;;;;;;;5035228;28;20310;-39
2022/04/17 05:17:28;;;;;;;7.63;5.37;;;;;;;;;;5035409;28;20611;-40
2022/04/17 05:19:55;;;;;;;6.37;5.00;;;;;;;;;;5035580;28;20244;-40
2022/04/17 05:22:31;;;;;;;8.70;5.07;;;;;;;;;;5035397;28;20229;-40
2022/04/17 05:24:59;;;;;;;6.83;5.03;;;;;;;;;;5035705;28;20220;-42
2022/04/17 05:27:27;;;;;;;7.87;5.20;;;;;;;;;;5016406;28;20761;-46
2022/04/17 05:29:55;;;;;;;7.27;4.60;;;;;;;;;;5014988;28;20299;-41
2022/04/17 05:32:22;;;;;;;6.27;4.20;;;;;;;;;;5013118;28;20221;-41
2022/04/17 05:34:50;;;;;;;6.03;4.40;;;;;;;;;;5011264;28;20719;-41
2022/04/17 05:37:17;;;;;;;8.10;4.57;;;;;;;;;;5014048;28;20217;-41
2022/04/17 05:39:44;;;;;;;6.47;4.40;;;;;;;;;;5013980;28;20233;-41
2022/04/17 05:42:12;;;;;;;5.93;3.77;;;;;;;;;;5012860;28;20319;-46
2022/04/17 05:44:45;;;;;;;7.40;4.63;;;;;;;;;;5012332;28;20230;-44
2022/04/17 05:47:13;;;;;;;7.40;4.57;;;;;;;;;;5026002;28;20311;-38
2022/04/17 05:49:40;;;;;;;7.50;4.20;;;;;;;;;;5027744;28;20698;-40
2022/04/17 05:52:08;;;;;;;6.00;4.13;;;;;;;;;;5013664;28;20669;-40
2022/04/17 05:54:35;;;;;;;6.05;4.13;;;;;;;;;;5014303;28;20209;-40
2022/04/17 05:57:03;;;;;;;5.75;3.97;;;;;;;;;;5013270;28;20229;-48
2022/04/17 05:59:30;;;;;;;6.55;4.10;;;;;;;;;;5012679;28;20232;-40
2022/04/17 06:01:57;;;;;;;7.97;4.20;;;;;;;;;;5013853;28;20226;-40
2022/04/17 06:04:25;;;;;;;5.47;4.17;;;;;;;;;;5013346;28;20279;-42
2022/04/17 06:06:53;;;;;;;5.93;4.22;;;;;;;;;;5012310;28;20534;-43
2022/04/17 06:09:20;;;;;;;5.72;3.95;;;;;;;;;;5010728;28;20241;-40
2022/04/17 06:11:47;;;;;;;6.07;3.92;;;;;;;;;;5014401;28;20324;-41
2022/04/17 06:14:15;;;;;;;5.78;4.15;;;;;;;;;;5013217;28;20545;-40
2022/04/17 06:16:42;;;;;;;6.00;3.90;;;;;;;;;;5014399;28;20275;-40
2022/04/17 06:19:11;;;;;;;10.50;5.07;;;;;;;;;;5014457;28;20228;-43
2022/04/17 06:21:40;;;;;;;6.13;3.90;;;;;;;;;;5014975;28;20252;-39
2022/04/17 06:24:07;;;;;;;7.07;3.95;;;;;;;;;;5030195;28;20225;-38
2022/04/17 06:26:34;;;;;;;5.60;3.85;;;;;;;;;;5014620;28;20239;-37
2022/04/17 06:29:05;;;;;;;5.25;4.10;;;;;;;;;;5015440;28;20243;-39
2022/04/17 06:31:33;;;;;;;6.97;3.95;;;;;;;;;;5014716;28;20616;-39
2022/04/17 06:34:01;;;;;;;5.28;3.75;;;;;;;;;;5015036;28;20297;-39
2022/04/17 06:36:28;;;;;;;4.95;3.63;;;;;;;;;;5015167;28;20216;-41
2022/04/17 06:38:56;;;;;;;5.85;3.78;;;;;;;;;;5015262;28;20209;-39
2022/04/17 06:41:22;;;;;;;6.47;3.53;;;;;;;;;;5015093;28;20224;-40
2022/04/17 06:43:50;;;;;;;4.70;3.38;;;;;;;;;;5015349;28;20224;-39
2022/04/17 06:46:18;;;;;;;8.18;3.72;;;;;;;;;;5015278;28;20216;-39
2022/04/17 06:48:45;;;;;;;8.88;4.00;;;;;;;;;;5015085;28;20264;-39
2022/04/17 06:51:12;;;;;;;7.32;4.00;;;;;;;;;;5015093;28;20289;-39
2022/04/17 06:53:40;;;;;;;5.03;3.67;;;;;;;;;;5015244;28;20216;-40
2022/04/17 06:56:08;;;;;;;7.77;4.00;;;;;;;;;;5014866;28;20632;-39
2022/04/17 06:58:35;;;;;;;5.43;3.67;;;;;;;;;;5015590;28;20209;-39
2022/04/17 07:01:02;;;;;;;6.17;3.57;;;;;;;;;;5013961;28;20259;-38
2022/04/17 07:03:29;;;;;;;6.20;3.27;;;;;;;;;;5014710;28;20228;-39
2022/04/17 07:05:56;;;;;;;5.80;3.10;;;;;;;;;;5014845;28;20212;-42
2022/04/17 07:08:23;;;;;;;6.93;3.40;;;;;;;;;;5014636;28;20235;-40
2022/04/17 07:10:50;;;;;;;8.70;3.50;;;;;;;;;;5015404;28;20239;-39
2022/04/17 07:13:19;;;;;;;6.23;3.63;;;;;;;;;;5014865;28;20216;-39
2022/04/17 07:15:46;;;;;;;7.20;4.50;;;;;;;;;;5014707;28;20520;-39
2022/04/17 07:18:14;;;;;;;6.77;4.13;;;;;;;;;;5014898;28;20205;-39
2022/04/17 07:20:41;;;;;;;6.60;4.33;;;;;;;;;;5014839;28;20666;-39
2022/04/17 07:23:08;;;;;;;7.80;3.90;;;;;;;;;;5014871;28;20225;-42
2022/04/17 07:25:38;;;;;;;6.83;3.87;;;;;;;;;;5014568;28;20511;-39
2022/04/17 07:28:12;;;;;;;6.00;3.70;;;;;;;;;;5015171;28;20299;-40
2022/04/17 07:30:43;;;;;;;7.33;4.50;;;;;;;;;;5014978;28;20193;-39
2022/04/17 07:33:10;;;;;;;8.17;4.20;;;;;;;;;;5014668;28;20517;-39
2022/04/17 07:35:37;;;;;;;6.17;4.13;;;;;;;;;;5014601;28;20201;-39
2022/04/17 07:38:05;;;;;;;5.53;3.40;;;;;;;;;;5014838;28;20206;-39
2022/04/17 07:40:33;;;;;;;4.90;3.50;;;;;;;;;;5014735;28;20259;-39
2022/04/17 07:43:03;;;;;;;7.13;3.67;;;;;;;;;;5014629;28;20216;-39
2022/04/17 07:45:31;;;;;;;6.33;4.13;;;;;;;;;;5014427;28;20640;-39
2022/04/17 07:47:58;;;;;;;4.47;3.20;;;;;;;;;;5014448;28;20649;-39
2022/04/17 07:50:27;;;;;;;5.70;3.00;;;;;;;;;;5014545;28;20221;-39
2022/04/17 07:52:55;;;;;;;4.27;2.90;;;;;;;;;;5014614;28;20222;-39
2022/04/17 07:55:22;;;;;;;4.53;3.00;;;;;;;;;;5014575;28;20283;-39
2022/04/17 08:00:24;;;;;;;3.87;2.67;;;;;;;;;;5009952;28;20208;-40
2022/04/17 08:05:54;;;;;;;3.17;2.30;;;;;;;;;;4999580;28;20212;-43
2022/04/17 08:08:21;;;;;;;4.80;1.77;;;;;;;;;;5009397;28;20225;-42
2022/04/17 08:10:48;;;;;;;3.20;1.90;;;;;;;;;;5012268;28;20299;-41
2022/04/17 08:13:16;;;;;;;3.63;2.40;;;;;;;;;;5013003;28;20201;-54
2022/04/17 08:15:43;;;;;;;4.97;2.83;;;;;;;;;;5012648;28;20244;-41
2022/04/17 08:18:10;;;;;;;3.92;2.53;;;;;;;;;;5012891;28;20308;-43
2022/04/17 08:20:38;;;;;;;3.10;2.40;;;;;;;;;;5017562;28;20551;-41
2022/04/17 08:23:05;;;;;;;3.47;1.87;;;;;;;;;;5018728;28;20648;-43
2022/04/17 08:25:33;;;;;;;3.17;2.13;;;;;;;;;;5017489;28;20221;-42
2022/04/17 08:28:00;;;;;;;1.85;1.70;;;;;;;;;;5015520;28;20213;-41
2022/04/17 08:30:32;;;;;;;3.47;2.25;;;;;;;;;;5015826;28;21260;-40
2022/04/17 08:33:00;;;;;;;5.23;2.50;;;;;;;;;;5014750;28;20589;-44
2022/04/17 08:35:28;;;;;;;2.50;1.70;;;;;;;;;;5015959;28;20230;-45
2022/04/17 08:38:01;;;;;;;2.77;2.07;;;;;;;;;;5014365;28;20217;-43
2022/04/17 08:40:28;;;;;;;2.37;1.80;;;;;;;;;;5015554;28;20244;-43
2022/04/17 08:42:56;;;;;;;1.73;1.50;;;;;;;;;;5015697;28;20221;-43
2022/04/17 08:45:24;;;;;;;2.80;1.52;;;;;;;;;;5015336;28;20217;-40
2022/04/17 08:47:51;;;;;;;2.35;1.60;;;;;;;;;;5026451;28;20218;-41
2022/04/17 08:50:20;;;;;;;2.67;1.37;;;;;;;;;;5012835;28;20660;-41
2022/04/17 08:52:48;;;;;;;3.15;1.48;;;;;;;;;;5015125;28;20230;-41
2022/04/17 08:55:15;;;;;;;1.52;1.00;;;;;;;;;;5013885;28;20524;-41
2022/04/17 08:57:43;;;;;;;2.13;1.63;;;;;;;;;;5015029;28;20298;-41
2022/04/17 09:00:13;;;;;;;1.60;1.30;;;;;;;;;;5014869;28;20229;-39
2022/04/17 09:02:40;;;;;;;3.10;1.30;;;;;;;;;;5015664;28;20295;-42
2022/04/17 09:05:10;;;;;;;2.05;1.40;;;;;;;;;;5013648;28;20221;-42
2022/04/17 09:07:53;;;;;;;2.28;1.50;;;;;;;;;;5014855;28;20220;-43
2022/04/17 09:10:29;;;;;;;6.35;1.95;;;;;;;;;;5014595;28;20237;-42
2022/04/17 09:12:59;;;;;;;3.58;1.65;;;;;;;;;;5014054;28;20257;-43
2022/04/17 09:15:34;;;;;;;2.63;1.63;;;;;;;;;;5007948;28;20236;-44
2022/04/17 09:18:02;;;;;;;3.30;1.88;;;;;;;;;;5014515;28;20286;-43
2022/04/17 09:20:29;;;;;;;2.70;1.60;;;;;;;;;;5029667;28;20229;-43
2022/04/17 09:23:00;;;;;;;3.13;1.73;;;;;;;;;;5013745;28;20225;-44
2022/04/17 09:25:28;;;;;;;2.03;1.38;;;;;;;;;;5014315;28;20667;-43
2022/04/17 09:28:04;;;;;;;1.73;1.20;;;;;;;;;;5014818;28;20567;-44
2022/04/17 09:30:38;;;;;;;2.17;1.53;;;;;;;;;;5032421;28;20564;-49
2022/04/17 09:33:12;;;;;;;3.60;1.75;;;;;;;;;;5048226;28;20279;-42
2022/04/17 09:35:40;;;;;;;2.17;1.30;;;;;;;;;;4995667;28;20311;-43
2022/04/17 09:38:09;;;;;;;1.52;1.27;;;;;;;;;;4995876;28;20244;-42
2022/04/17 09:40:37;;;;;;;2.13;1.23;;;;;;;;;;5000676;28;20228;-50
2022/04/17 09:43:22;;;;;;;2.03;1.25;;;;;;;;;;5007007;28;20230;-48
2022/04/17 09:46:10;;;;;;;2.00;1.05;;;;;;;;;;4999362;28;20229;-51
2022/04/17 09:48:42;;;;;;;2.23;1.53;;;;;;;;;;5013918;28;20233;-42
2022/04/17 09:51:18;;;;;;;1.25;1.00;;;;;;;;;;5014854;28;20280;-43
2022/04/17 09:53:55;;;;;;;1.58;1.35;;;;;;;;;;5010001;28;20201;-43
2022/04/17 09:56:33;;;;;;;2.00;1.63;;;;;;;;;;5014887;28;20523;-43
2022/04/17 09:59:18;;;;;;;2.75;1.25;;;;;;;;;;5016046;28;20216;-46
2022/04/17 10:01:46;;;;;;;1.65;1.30;;;;;;;;;;5016613;28;20197;-43
2022/04/17 10:04:17;;;;;;;2.03;1.20;;;;;;;;;;5015959;28;20557;-43
2022/04/17 10:06:44;;;;;;;2.58;1.40;;;;;;;;;;5015066;28;20625;-41
2022/04/17 10:09:11;;;;;;;2.38;1.33;;;;;;;;;;5014199;28;20240;-43
2022/04/17 10:11:40;;;;;;;3.17;1.40;;;;;;;;;;5015740;28;20600;-43
2022/04/17 10:14:07;;;;;;;2.25;1.27;;;;;;;;;;5015623;28;20209;-43
2022/04/17 10:16:42;;;;;;;2.13;1.30;;;;;;;;;;5016023;28;20522;-42
2022/04/17 10:19:13;;;;;;;1.75;1.25;;;;;;;;;;5016069;28;20185;-43
2022/04/17 10:21:42;;;;;;;1.45;1.33;;;;;;;;;;5015585;28;20239;-43
2022/04/17 10:24:17;;;;;;;1.52;1.10;;;;;;;;;;5015517;28;20216;-43
2022/04/17 10:26:47;;;;;;;1.55;1.25;;;;;;;;;;5015220;28;20208;-43
2022/04/17 10:29:23;;;;;;;3.05;1.30;;;;;;;;;;5015058;28;20323;-43
2022/04/17 10:32:20;;;;;;;2.25;1.42;;;;;;;;;;5014858;28;20248;-43
2022/04/17 10:34:53;;;;;;;2.15;1.48;;;;;;;;;;5021626;28;20226;-41
2022/04/17 10:37:33;;;;;;;2.38;1.40;;;;;;;;;;5009876;28;20236;-41
2022/04/17 10:40:00;;;;;;;1.73;1.20;;;;;;;;;;4994987;28;20287;-40
2022/04/17 10:42:37;;;;;;;1.55;1.35;;;;;;;;;;4994043;28;20237;-40
2022/04/17 10:45:07;;;;;;;1.52;1.20;;;;;;;;;;5002719;28;20224;-48
2022/04/17 10:47:34;;;;;;;2.85;1.40;;;;;;;;;;5033999;28;20224;-41
2022/04/17 10:50:07;;;;;;;2.40;1.52;;;;;;;;;;5013532;28;20237;-40
2022/04/17 10:52:34;;;;;;;2.10;1.25;;;;;;;;;;5014113;28;20264;-40
2022/04/17 10:55:12;;;;;;;2.65;1.40;;;;;;;;;;5014351;28;20221;-40
2022/04/17 10:57:47;;;;;;;0.95;0.90;;;;;;;;;;5014103;28;20233;-40
2022/04/17 11:00:36;;;;;;;1.73;1.30;;;;;;;;;;5014139;28;20232;-41
2022/04/17 11:03:26;;;;;;;1.65;1.20;;;;;;;;;;5012841;28;20228;-45
2022/04/17 11:06:09;;;;;;;2.35;1.30;;;;;;;;;;5012811;28;20233;-43
2022/04/17 11:08:47;;;;;;;1.95;1.10;;;;;;;;;;5013600;28;20251;-43
2022/04/17 11:11:14;;;;;;;2.75;1.25;;;;;;;;;;5013704;28;20563;-42
2022/04/17 11:14:08;;;;;;;1.98;1.17;;;;;;;;;;5014331;28;20229;-43
2022/04/17 11:16:50;;;;;;;2.20;1.35;;;;;;;;;;5011333;28;20260;-43
2022/04/17 11:19:20;;;;;;;2.42;1.10;;;;;;;;;;4998263;28;20296;-49
2022/04/17 11:21:52;;;;;;;1.83;1.55;;;;;;;;;;5033688;28;20240;-43
2022/04/17 11:24:21;;;;;;;1.33;1.05;;;;;;;;;;5020944;28;20610;-44
2022/04/17 11:26:54;;;;;;;1.20;1.05;;;;;;;;;;5029249;28;20233;-43
2022/04/17 11:29:37;;;;;;;1.42;1.17;;;;;;;;;;5013713;28;20225;-43
2022/04/17 11:32:16;;;;;;;3.00;1.30;;;;;;;;;;5012972;28;20221;-47
2022/04/17 11:34:52;;;;;;;2.28;1.30;;;;;;;;;;5006053;28;20343;-43
2022/04/17 11:37:20;;;;;;;2.15;1.15;;;;;;;;;;5013244;28;20225;-43
2022/04/17 11:39:48;;;;;;;3.10;1.40;;;;;;;;;;5014082;28;20668;-44
2022/04/17 11:42:15;;;;;;;3.60;1.50;;;;;;;;;;5013726;28;20303;-43
2022/04/17 11:44:44;;;;;;;1.30;1.10;;;;;;;;;;5013905;28;20252;-43
2022/04/17 11:47:19;;;;;;;1.85;1.17;;;;;;;;;;5014961;28;20672;-43
2022/04/17 11:49:49;;;;;;;2.55;1.33;;;;;;;;;;5023171;28;20232;-42
2022/04/17 11:52:19;;;;;;;1.20;1.10;;;;;;;;;;5037276;28;20228;-41
2022/04/17 11:54:47;;;;;;;1.45;1.10;;;;;;;;;;5036254;28;20315;-42
2022/04/17 11:57:19;;;;;;;3.10;1.27;;;;;;;;;;5017574;28;20291;-45
2022/04/17 11:59:54;;;;;;;1.60;1.08;;;;;;;;;;5017428;28;20226;-41
2022/04/17 12:02:26;;;;;;;1.55;1.10;;;;;;;;;;5033463;28;20237;-40
2022/04/17 12:04:55;;;;;;;2.13;1.25;;;;;;;;;;5017964;28;20264;-40
2022/04/17 12:07:24;;;;;;;1.65;1.27;;;;;;;;;;5018199;28;20204;-41
2022/04/17 12:10:13;;;;;;;2.00;1.30;;;;;;;;;;5017872;28;20284;-40
2022/04/17 12:12:43;;;;;;;2.30;1.23;;;;;;;;;;5018208;28;20213;-40
2022/04/17 12:15:12;;;;;;;3.40;1.70;;;;;;;;;;5017673;28;20207;-40
2022/04/17 12:17:39;;;;;;;3.03;1.52;;;;;;;;;;5017696;28;20201;-40
2022/04/17 12:20:09;;;;;;;1.90;1.48;;;;;;;;;;5018099;28;20209;-40
2022/04/17 12:22:37;;;;;;;1.88;1.08;;;;;;;;;;5017868;28;20316;-40
2022/04/17 12:25:13;;;;;;;1.73;1.20;;;;;;;;;;5017758;28;20205;-41
2022/04/17 12:27:41;;;;;;;1.85;1.25;;;;;;;;;;5017903;28;20208;-41
2022/04/17 12:30:09;;;;;;;1.80;1.30;;;;;;;;;;5033113;28;20225;-41
2022/04/17 12:32:43;;;;;;;2.35;1.60;;;;;;;;;;5033001;28;20602;-41
2022/04/17 12:35:13;;;;;;;1.95;1.40;;;;;;;;;;5017898;28;20205;-40
2022/04/17 12:37:40;;;;;;;2.78;1.42;;;;;;;;;;5017758;28;20201;-40
2022/04/17 12:40:10;;;;;;;2.03;1.65;;;;;;;;;;5017677;28;20216;-41
2022/04/17 12:42:38;;;;;;;3.60;1.40;;;;;;;;;;5017886;28;20220;-39
2022/04/17 12:45:09;;;;;;;2.65;1.60;;;;;;;;;;5017462;28;20206;-40
2022/04/17 12:47:38;;;;;;;3.22;1.50;;;;;;;;;;5017364;28;20283;-40
2022/04/17 12:50:08;;;;;;;3.15;1.38;;;;;;;;;;5017176;28;20291;-40
2022/04/17 12:52:40;;;;;;;2.78;1.25;;;;;;;;;;5018023;28;20260;-40
2022/04/17 12:55:09;;;;;;;2.75;1.33;;;;;;;;;;5017579;28;20235;-40
2022/04/17 12:57:37;;;;;;;1.83;1.38;;;;;;;;;;5017196;28;20307;-40
2022/04/17 13:00:28;;;;;;;1.63;1.30;;;;;;;;;;5016111;28;20293;-39
2022/04/17 13:03:15;;;;;;;1.52;1.33;;;;;;;;;;5017177;28;20208;-40
2022/04/17 13:05:42;;;;;;;2.67;1.35;;;;;;;;;;5017187;28;20205;-39
2022/04/17 13:08:10;;;;;;;2.97;1.60;;;;;;;;;;5016953;28;20201;-39
2022/04/17 13:10:41;;;;;;;1.77;1.25;;;;;;;;;;5016646;28;20237;-40
2022/04/17 13:13:07;;;;;;;3.17;1.73;;;;;;;;;;5017143;28;20208;-40
2022/04/17 13:15:37;;;;;;;3.38;1.42;;;;;;;;;;5016849;28;20205;-40
2022/04/17 13:18:04;;;;;;;2.67;1.63;;;;;;;;;;5016503;28;20206;-40
2022/04/17 13:20:34;;;;;;;4.15;1.60;;;;;;;;;;5016855;28;20215;-39
2022/04/17 13:23:05;;;;;;;4.32;1.92;;;;;;;;;;5016391;28;20189;-39
2022/04/17 13:25:32;;;;;;;2.10;1.30;;;;;;;;;;5016761;28;20228;-40
2022/04/17 13:28:00;;;;;;;2.17;1.45;;;;;;;;;;5016872;28;20205;-41
2022/04/17 13:30:27;;;;;;;3.40;1.27;;;;;;;;;;5016258;28;20240;-40
2022/04/17 13:32:54;;;;;;;4.80;1.50;;;;;;;;;;5016431;28;20205;-40
2022/04/17 13:35:21;;;;;;;2.58;1.42;;;;;;;;;;5016685;28;20201;-40
2022/04/17 13:40:41;;;;;;;3.60;1.80;;;;;;;;;;5016482;28;20201;-40
2022/04/17 13:43:08;;;;;;;2.67;1.45;;;;;;;;;;5016237;28;20209;-40
2022/04/17 13:45:37;;;;;;;3.17;1.75;;;;;;;;;;5015033;28;20205;-42
2022/04/17 13:48:08;;;;;;;2.60;1.60;;;;;;;;;;5011882;28;20294;-43
2022/04/17 13:50:37;;;;;;;2.22;1.55;;;;;;;;;;5030763;28;20236;-43
2022/04/17 13:53:05;;;;;;;2.63;1.65;;;;;;;;;;5035037;28;20235;-43
2022/04/17 13:55:35;;;;;;;3.22;1.77;;;;;;;;;;5031476;28;20308;-44
2022/04/17 13:58:03;;;;;;;3.35;1.50;;;;;;;;;;5026397;28;20229;-43
2022/04/17 14:00:30;;;;;;;3.15;1.80;;;;;;;;;;5034938;28;20228;-43
2022/04/17 14:02:57;;;;;;;2.42;1.48;;;;;;;;;;5019814;28;20683;-43
2022/04/17 14:05:24;;;;;;;2.63;1.55;;;;;;;;;;5015297;28;20233;-44
2022/04/17 14:07:51;;;;;;;3.13;1.50;;;;;;;;;;5015235;28;20232;-44
2022/04/17 14:10:18;;;;;;;3.50;1.63;;;;;;;;;;5014324;28;20668;-43
2022/04/17 14:12:45;;;;;;;2.80;1.55;;;;;;;;;;5014748;28;20237;-43
2022/04/17 14:15:12;;;;;;;2.47;1.65;;;;;;;;;;5015191;28;20244;-44
2022/04/17 14:17:39;;;;;;;2.45;1.77;;;;;;;;;;5014235;28;20725;-42
2022/04/17 14:20:07;;;;;;;3.83;1.80;;;;;;;;;;5015025;28;20241;-43
2022/04/17 14:22:40;;;;;;;2.83;2.10;;;;;;;;;;5014753;28;20244;-47
2022/04/17 14:25:07;;;;;;;3.03;1.70;;;;;;;;;;5015035;28;20251;-42
2022/04/17 14:27:35;;;;;;;2.00;1.50;;;;;;;;;;5013336;28;20225;-42
2022/04/17 14:30:02;;;;;;;3.20;1.40;;;;;;;;;;5014943;28;20225;-41
2022/04/17 14:32:30;;;;;;;3.75;1.90;;;;;;;;;;5015462;28;20220;-40
2022/04/17 14:34:57;;;;;;;2.45;1.52;;;;;;;;;;5014983;28;20213;-41
2022/04/17 14:37:24;;;;;;;2.50;1.60;;;;;;;;;;5015498;28;20236;-40
2022/04/17 14:39:51;;;;;;;3.25;1.67;;;;;;;;;;5014982;28;20218;-41
2022/04/17 14:42:18;;;;;;;2.17;1.50;;;;;;;;;;5015042;28;20243;-40
2022/04/17 14:44:45;;;;;;;3.15;1.80;;;;;;;;;;5015043;28;20289;-40
2022/04/17 14:47:12;;;;;;;3.90;1.30;;;;;;;;;;5015187;28;20424;-40
2022/04/17 14:49:42;;;;;;;2.85;1.52;;;;;;;;;;5015078;28;20197;-40
2022/04/17 14:52:09;;;;;;;3.38;1.98;;;;;;;;;;5015447;28;20224;-40
2022/04/17 14:54:38;;;;;;;2.17;1.88;;;;;;;;;;5014925;28;20210;-39
2022/04/17 14:57:06;;;;;;;4.10;2.42;;;;;;;;;;5014921;28;20293;-45
2022/04/17 14:59:34;;;;;;;2.92;1.40;;;;;;;;;;5014788;28;20606;-40
2022/04/17 15:02:03;;;;;;;1.70;1.55;;;;;;;;;;5014718;28;20220;-40
2022/04/17 15:04:36;;;;;;;3.28;1.80;;;;;;;;;;5015282;28;20212;-40
2022/04/17 15:07:03;;;;;;;6.38;2.95;;;;;;;;;;5015093;28;20201;-40
2022/04/17 15:09:30;;;;;;;6.13;2.80;;;;;;;;;;5014823;28;20295;-41
2022/04/17 15:11:58;;;;;;;3.83;1.88;;;;;;;;;;5014808;28;20618;-40
2022/04/17 15:14:25;;;;;;;6.15;3.13;;;;;;;;;;5014956;28;20209;-41
2022/04/17 15:16:53;;;;;;;4.32;1.88;;;;;;;;;;5014875;28;20323;-40